EDVK/KSF METAR and TAF weather

Enter ICAO airport designator
Station Type Date Time Source
EDVK METAR 2020/08/15 10:20 UTC NOAA

EDVK 151020Z 26003KT 220V340 9999 FEW020 22/17 Q1016


Station Type Date Time Source
EDVK Decoded METAR 2020/08/15 10:20 UTC NOAA

Kassel / Calden, Germany (EDVK) 51-24N 009-23E 283M
Aug 15, 2020 - 06:20 AM EDT / 2020.08.15 1020 UTC
Wind: from the W (260 degrees) at 3 MPH (3 KT) (direction variable):0
Visibility: greater than 7 mile(s):0
Sky conditions: mostly clear
Temperature: 71 F (22 C)
Dew Point: 62 F (17 C)
Relative Humidity: 73%
Pressure (altimeter): 30.00 in. Hg (1016 hPa)
ob: EDVK 151020Z 26003KT 220V340 9999 FEW020 22/17 Q1016
cycle: 10

Station Type Date Time Source
EDVK TAF 2011/03/23 07:09 UTC NOAA

TAF COR EDVK 230655Z 2307/2321 30002KT 3500 BR SCT025 PROB30
TEMPO 2307/2309 1400 BCFG
BECMG 2307/2310 01007KT 8000

Example: see airport list